sensor_id;sensor_type;location;lat;lon;timestamp;temperature;humidity
41985;DHT22;28319;48.116;10.818;2023-05-07T00:04:20;14.80;99.90
41985;DHT22;28319;48.116;10.818;2023-05-07T00:09:24;14.60;99.90
41985;DHT22;28319;48.116;10.818;2023-05-07T00:14:25;14.40;99.90
41985;DHT22;28319;48.116;10.818;2023-05-07T00:19:27;14.40;99.90
41985;DHT22;28319;48.116;10.818;2023-05-07T00:24:31;14.50;99.90
41985;DHT22;28319;48.116;10.818;2023-05-07T00:29:33;14.60;99.90
41985;DHT22;28319;48.116;10.818;2023-05-07T00:34:35;14.50;99.90
41985;DHT22;28319;48.116;10.818;2023-05-07T00:39:38;14.50;99.90
41985;DHT22;28319;48.116;10.818;2023-05-07T00:44:40;14.40;99.90
41985;DHT22;28319;48.116;10.818;2023-05-07T00:49:43;14.20;99.90
41985;DHT22;28319;48.116;10.818;2023-05-07T00:54:47;14.10;99.90
41985;DHT22;28319;48.116;10.818;2023-05-07T00:59:51;14.10;99.90
41985;DHT22;28319;48.116;10.818;2023-05-07T01:04:53;14.20;99.90
41985;DHT22;28319;48.116;10.818;2023-05-07T01:09:58;14.20;99.90
41985;DHT22;28319;48.116;10.818;2023-05-07T01:15:02;14.10;99.90
41985;DHT22;28319;48.116;10.818;2023-05-07T01:20:05;14.00;99.90
41985;DHT22;28319;48.116;10.818;2023-05-07T01:25:09;14.10;99.90
41985;DHT22;28319;48.116;10.818;2023-05-07T01:30:11;14.00;99.90
41985;DHT22;28319;48.116;10.818;2023-05-07T01:35:16;14.00;99.90
41985;DHT22;28319;48.116;10.818;2023-05-07T01:40:24;14.00;99.90
41985;DHT22;28319;48.116;10.818;2023-05-07T01:45:26;13.90;99.90
41985;DHT22;28319;48.116;10.818;2023-05-07T01:50:29;13.80;99.90
41985;DHT22;28319;48.116;10.818;2023-05-07T01:55:33;13.90;99.90
41985;DHT22;28319;48.116;10.818;2023-05-07T02:00:37;13.70;99.90
41985;DHT22;28319;48.116;10.818;2023-05-07T02:05:39;13.60;99.90
41985;DHT22;28319;48.116;10.818;2023-05-07T02:10:42;13.30;99.90
41985;DHT22;28319;48.116;10.818;2023-05-07T02:15:44;13.20;99.90
41985;DHT22;28319;48.116;10.818;2023-05-07T02:20:49;13.50;99.90
41985;DHT22;28319;48.116;10.818;2023-05-07T02:25:53;13.40;99.90
41985;DHT22;28319;48.116;10.818;2023-05-07T02:30:55;13.40;99.90
41985;DHT22;28319;48.116;10.818;2023-05-07T02:36:05;13.50;99.90
41985;DHT22;28319;48.116;10.818;2023-05-07T02:41:08;13.20;99.90
41985;DHT22;28319;48.116;10.818;2023-05-07T02:46:10;13.20;99.90
41985;DHT22;28319;48.116;10.818;2023-05-07T02:51:13;13.30;99.90
41985;DHT22;28319;48.116;10.818;2023-05-07T02:56:17;13.40;99.90
41985;DHT22;28319;48.116;10.818;2023-05-07T03:01:19;13.30;99.90
41985;DHT22;28319;48.116;10.818;2023-05-07T03:06:21;13.20;99.90
41985;DHT22;28319;48.116;10.818;2023-05-07T03:11:24;13.20;99.90
41985;DHT22;28319;48.116;10.818;2023-05-07T03:16:27;13.20;99.90
41985;DHT22;28319;48.116;10.818;2023-05-07T03:21:29;13.10;99.90
41985;DHT22;28319;48.116;10.818;2023-05-07T03:26:32;13.10;99.90
41985;DHT22;28319;48.116;10.818;2023-05-07T03:31:34;13.10;99.90
41985;DHT22;28319;48.116;10.818;2023-05-07T03:36:36;13.20;99.90
41985;DHT22;28319;48.116;10.818;2023-05-07T03:41:40;13.00;99.90
41985;DHT22;28319;48.116;10.818;2023-05-07T03:46:42;13.00;99.90
41985;DHT22;28319;48.116;10.818;2023-05-07T03:51:44;12.90;99.90
41985;DHT22;28319;48.116;10.818;2023-05-07T03:56:47;12.90;99.90
41985;DHT22;28319;48.116;10.818;2023-05-07T04:01:49;12.90;99.90
41985;DHT22;28319;48.116;10.818;2023-05-07T04:06:51;13.00;99.90
41985;DHT22;28319;48.116;10.818;2023-05-07T04:11:55;12.90;99.90
41985;DHT22;28319;48.116;10.818;2023-05-07T04:16:57;12.80;99.90
41985;DHT22;28319;48.116;10.818;2023-05-07T04:21:59;12.80;99.90
41985;DHT22;28319;48.116;10.818;2023-05-07T04:27:03;12.70;99.90
41985;DHT22;28319;48.116;10.818;2023-05-07T04:32:05;12.70;99.90
41985;DHT22;28319;48.116;10.818;2023-05-07T04:37:07;12.70;99.90
41985;DHT22;28319;48.116;10.818;2023-05-07T04:42:14;12.70;99.90
41985;DHT22;28319;48.116;10.818;2023-05-07T04:47:16;12.50;99.90
41985;DHT22;28319;48.116;10.818;2023-05-07T04:52:18;12.60;99.90
41985;DHT22;28319;48.116;10.818;2023-05-07T04:57:22;12.60;99.90
41985;DHT22;28319;48.116;10.818;2023-05-07T05:02:24;12.60;99.90
41985;DHT22;28319;48.116;10.818;2023-05-07T05:07:26;12.60;99.90
41985;DHT22;28319;48.116;10.818;2023-05-07T05:12:29;12.70;99.90
41985;DHT22;28319;48.116;10.818;2023-05-07T05:17:31;12.70;99.90
41985;DHT22;28319;48.116;10.818;2023-05-07T05:22:35;12.80;99.90
41985;DHT22;28319;48.116;10.818;2023-05-07T05:27:38;12.90;99.90
41985;DHT22;28319;48.116;10.818;2023-05-07T05:32:40;13.00;99.90
41985;DHT22;28319;48.116;10.818;2023-05-07T05:37:42;13.10;99.90
41985;DHT22;28319;48.116;10.818;2023-05-07T05:42:46;13.10;99.90
41985;DHT22;28319;48.116;10.818;2023-05-07T05:47:48;13.10;99.90
41985;DHT22;28319;48.116;10.818;2023-05-07T05:52:50;13.30;99.90
41985;DHT22;28319;48.116;10.818;2023-05-07T05:57:54;13.30;99.90
41985;DHT22;28319;48.116;10.818;2023-05-07T06:02:56;13.40;99.90
41985;DHT22;28319;48.116;10.818;2023-05-07T06:07:58;13.50;99.90
41985;DHT22;28319;48.116;10.818;2023-05-07T06:13:01;13.60;99.90
41985;DHT22;28319;48.116;10.818;2023-05-07T06:18:03;13.80;99.90
41985;DHT22;28319;48.116;10.818;2023-05-07T06:23:05;13.90;99.90
41985;DHT22;28319;48.116;10.818;2023-05-07T06:28:09;14.10;99.90
41985;DHT22;28319;48.116;10.818;2023-05-07T06:33:11;14.30;99.90
41985;DHT22;28319;48.116;10.818;2023-05-07T06:38:13;14.40;99.90
41985;DHT22;28319;48.116;10.818;2023-05-07T06:43:17;14.50;99.90
41985;DHT22;28319;48.116;10.818;2023-05-07T06:48:19;14.70;99.90
41985;DHT22;28319;48.116;10.818;2023-05-07T06:53:21;14.80;99.90
41985;DHT22;28319;48.116;10.818;2023-05-07T06:58:25;14.90;99.90
41985;DHT22;28319;48.116;10.818;2023-05-07T07:03:27;15.20;99.90
41985;DHT22;28319;48.116;10.818;2023-05-07T07:08:29;15.40;99.90
41985;DHT22;28319;48.116;10.818;2023-05-07T07:13:32;15.50;99.90
41985;DHT22;28319;48.116;10.818;2023-05-07T07:18:34;15.70;99.90
41985;DHT22;28319;48.116;10.818;2023-05-07T07:23:36;15.80;99.90
41985;DHT22;28319;48.116;10.818;2023-05-07T07:28:46;15.90;99.90
41985;DHT22;28319;48.116;10.818;2023-05-07T07:33:48;16.10;99.90
41985;DHT22;28319;48.116;10.818;2023-05-07T07:38:50;16.20;99.90
41985;DHT22;28319;48.116;10.818;2023-05-07T07:43:54;16.40;99.90
41985;DHT22;28319;48.116;10.818;2023-05-07T07:48:56;16.70;99.90
41985;DHT22;28319;48.116;10.818;2023-05-07T07:54:00;16.80;99.90
41985;DHT22;28319;48.116;10.818;2023-05-07T07:59:04;17.00;99.90
41985;DHT22;28319;48.116;10.818;2023-05-07T08:04:06;17.20;99.90
41985;DHT22;28319;48.116;10.818;2023-05-07T08:09:08;17.50;99.90
41985;DHT22;28319;48.116;10.818;2023-05-07T08:14:12;17.60;99.90
41985;DHT22;28319;48.116;10.818;2023-05-07T08:19:13;17.70;99.90
41985;DHT22;28319;48.116;10.818;2023-05-07T08:24:15;17.80;99.90
41985;DHT22;28319;48.116;10.818;2023-05-07T08:29:19;18.00;99.90
41985;DHT22;28319;48.116;10.818;2023-05-07T08:34:21;18.20;99.90
41985;DHT22;28319;48.116;10.818;2023-05-07T08:39:24;18.40;99.90
41985;DHT22;28319;48.116;10.818;2023-05-07T08:44:28;18.40;99.90
41985;DHT22;28319;48.116;10.818;2023-05-07T08:49:33;18.60;99.90
41985;DHT22;28319;48.116;10.818;2023-05-07T08:54:37;18.80;99.90
41985;DHT22;28319;48.116;10.818;2023-05-07T08:59:40;18.90;99.90
41985;DHT22;28319;48.116;10.818;2023-05-07T09:04:43;19.20;99.90
41985;DHT22;28319;48.116;10.818;2023-05-07T09:09:45;19.40;99.90
41985;DHT22;28319;48.116;10.818;2023-05-07T09:14:49;19.60;99.90
41985;DHT22;28319;48.116;10.818;2023-05-07T09:19:51;19.70;99.90
41985;DHT22;28319;48.116;10.818;2023-05-07T09:24:54;19.80;99.90
41985;DHT22;28319;48.116;10.818;2023-05-07T09:29:58;20.00;99.90
41985;DHT22;28319;48.116;10.818;2023-05-07T09:35:00;19.90;99.90
41985;DHT22;28319;48.116;10.818;2023-05-07T09:40:03;20.20;99.90
41985;DHT22;28319;48.116;10.818;2023-05-07T09:45:09;20.10;99.90
41985;DHT22;28319;48.116;10.818;2023-05-07T09:50:12;20.20;99.90
41985;DHT22;28319;48.116;10.818;2023-05-07T09:55:17;20.20;99.90
41985;DHT22;28319;48.116;10.818;2023-05-07T10:00:21;20.30;99.90
41985;DHT22;28319;48.116;10.818;2023-05-07T10:05:24;20.30;99.90
41985;DHT22;28319;48.116;10.818;2023-05-07T10:10:27;20.30;99.90
41985;DHT22;28319;48.116;10.818;2023-05-07T10:15:32;20.50;99.90
41985;DHT22;28319;48.116;10.818;2023-05-07T10:20:36;20.40;99.90
41985;DHT22;28319;48.116;10.818;2023-05-07T10:25:38;20.50;99.90
41985;DHT22;28319;48.116;10.818;2023-05-07T10:30:53;20.70;99.90
41985;DHT22;28319;48.116;10.818;2023-05-07T10:36:02;20.80;99.90
41985;DHT22;28319;48.116;10.818;2023-05-07T10:41:05;21.00;99.90
41985;DHT22;28319;48.116;10.818;2023-05-07T10:46:14;20.90;99.90
41985;DHT22;28319;48.116;10.818;2023-05-07T10:51:20;20.60;99.90
41985;DHT22;28319;48.116;10.818;2023-05-07T10:56:26;20.80;99.90
41985;DHT22;28319;48.116;10.818;2023-05-07T11:01:50;20.70;99.90
41985;DHT22;28319;48.116;10.818;2023-05-07T11:07:16;21.10;99.90
41985;DHT22;28319;48.116;10.818;2023-05-07T11:18:05;21.50;99.90
41985;DHT22;28319;48.116;10.818;2023-05-07T11:23:07;21.50;99.90
41985;DHT22;28319;48.116;10.818;2023-05-07T11:28:10;21.60;99.90
41985;DHT22;28319;48.116;10.818;2023-05-07T11:33:17;21.80;99.90
41985;DHT22;28319;48.116;10.818;2023-05-07T11:38:19;22.00;99.40
41985;DHT22;28319;48.116;10.818;2023-05-07T11:43:21;21.80;99.40
41985;DHT22;28319;48.116;10.818;2023-05-07T11:48:25;22.10;99.90
41985;DHT22;28319;48.116;10.818;2023-05-07T11:53:28;21.90;99.60
41985;DHT22;28319;48.116;10.818;2023-05-07T11:58:30;22.10;99.50
41985;DHT22;28319;48.116;10.818;2023-05-07T12:03:33;22.00;98.90
41985;DHT22;28319;48.116;10.818;2023-05-07T12:08:36;22.00;98.80
41985;DHT22;28319;48.116;10.818;2023-05-07T12:13:39;22.00;98.20
41985;DHT22;28319;48.116;10.818;2023-05-07T12:18:43;22.20;98.60
41985;DHT22;28319;48.116;10.818;2023-05-07T12:23:46;22.10;98.50
41985;DHT22;28319;48.116;10.818;2023-05-07T12:28:48;22.30;98.10
41985;DHT22;28319;48.116;10.818;2023-05-07T12:33:51;22.20;97.80
41985;DHT22;28319;48.116;10.818;2023-05-07T12:38:54;22.30;97.30
41985;DHT22;28319;48.116;10.818;2023-05-07T12:43:57;22.00;97.70
41985;DHT22;28319;48.116;10.818;2023-05-07T12:49:00;21.70;97.50
41985;DHT22;28319;48.116;10.818;2023-05-07T12:54:03;21.50;96.70
41985;DHT22;28319;48.116;10.818;2023-05-07T12:59:05;21.50;97.30
41985;DHT22;28319;48.116;10.818;2023-05-07T13:04:08;21.40;97.80
41985;DHT22;28319;48.116;10.818;2023-05-07T13:09:10;21.30;98.20
41985;DHT22;28319;48.116;10.818;2023-05-07T13:14:13;21.30;98.40
41985;DHT22;28319;48.116;10.818;2023-05-07T13:19:16;21.10;98.50
41985;DHT22;28319;48.116;10.818;2023-05-07T13:24:18;21.10;98.80
41985;DHT22;28319;48.116;10.818;2023-05-07T13:29:20;21.10;98.80
41985;DHT22;28319;48.116;10.818;2023-05-07T13:34:28;20.90;98.80
41985;DHT22;28319;48.116;10.818;2023-05-07T13:39:30;20.90;98.90
41985;DHT22;28319;48.116;10.818;2023-05-07T13:44:32;20.90;98.80
41985;DHT22;28319;48.116;10.818;2023-05-07T13:49:35;20.90;98.20
41985;DHT22;28319;48.116;10.818;2023-05-07T13:54:38;20.90;99.20
41985;DHT22;28319;48.116;10.818;2023-05-07T13:59:40;21.10;98.80
41985;DHT22;28319;48.116;10.818;2023-05-07T14:04:44;21.20;99.10
41985;DHT22;28319;48.116;10.818;2023-05-07T14:09:46;21.20;99.10
41985;DHT22;28319;48.116;10.818;2023-05-07T14:14:48;21.30;99.30
41985;DHT22;28319;48.116;10.818;2023-05-07T14:19:53;21.20;98.60
41985;DHT22;28319;48.116;10.818;2023-05-07T14:24:55;21.10;99.20
41985;DHT22;28319;48.116;10.818;2023-05-07T14:29:57;21.00;99.10
41985;DHT22;28319;48.116;10.818;2023-05-07T14:35:00;20.90;99.50
41985;DHT22;28319;48.116;10.818;2023-05-07T14:40:03;20.80;99.70
41985;DHT22;28319;48.116;10.818;2023-05-07T14:45:07;20.70;99.30
41985;DHT22;28319;48.116;10.818;2023-05-07T14:50:10;20.70;99.30
41985;DHT22;28319;48.116;10.818;2023-05-07T14:55:13;20.70;99.90
41985;DHT22;28319;48.116;10.818;2023-05-07T15:00:15;20.60;99.50
41985;DHT22;28319;48.116;10.818;2023-05-07T15:05:19;20.60;99.60
41985;DHT22;28319;48.116;10.818;2023-05-07T15:10:21;20.60;99.90
41985;DHT22;28319;48.116;10.818;2023-05-07T15:15:23;20.80;99.90
41985;DHT22;28319;48.116;10.818;2023-05-07T15:20:26;20.60;99.50
41985;DHT22;28319;48.116;10.818;2023-05-07T15:25:28;20.70;99.70
41985;DHT22;28319;48.116;10.818;2023-05-07T15:30:31;20.70;99.70
41985;DHT22;28319;48.116;10.818;2023-05-07T15:35:35;20.70;99.20
41985;DHT22;28319;48.116;10.818;2023-05-07T15:40:37;20.80;99.40
41985;DHT22;28319;48.116;10.818;2023-05-07T15:45:42;20.70;99.40
41985;DHT22;28319;48.116;10.818;2023-05-07T15:50:46;20.70;99.20
41985;DHT22;28319;48.116;10.818;2023-05-07T15:55:48;20.40;99.30
41985;DHT22;28319;48.116;10.818;2023-05-07T16:00:50;20.40;99.90
41985;DHT22;28319;48.116;10.818;2023-05-07T16:05:54;20.40;99.90
41985;DHT22;28319;48.116;10.818;2023-05-07T16:10:57;20.30;99.90
41985;DHT22;28319;48.116;10.818;2023-05-07T16:15:59;20.20;99.90
41985;DHT22;28319;48.116;10.818;2023-05-07T16:21:03;20.00;99.90
41985;DHT22;28319;48.116;10.818;2023-05-07T16:26:05;19.90;99.90
41985;DHT22;28319;48.116;10.818;2023-05-07T16:31:07;19.70;99.90
41985;DHT22;28319;48.116;10.818;2023-05-07T16:36:11;19.70;99.90
41985;DHT22;28319;48.116;10.818;2023-05-07T16:41:13;19.60;99.90
41985;DHT22;28319;48.116;10.818;2023-05-07T16:46:15;19.60;99.90
41985;DHT22;28319;48.116;10.818;2023-05-07T16:51:18;19.40;99.90
41985;DHT22;28319;48.116;10.818;2023-05-07T16:56:21;19.40;99.90
41985;DHT22;28319;48.116;10.818;2023-05-07T17:01:23;19.20;99.90
41985;DHT22;28319;48.116;10.818;2023-05-07T17:06:27;19.10;99.90
41985;DHT22;28319;48.116;10.818;2023-05-07T17:11:28;19.00;99.90
41985;DHT22;28319;48.116;10.818;2023-05-07T17:16:33;19.10;99.90
41985;DHT22;28319;48.116;10.818;2023-05-07T17:21:36;19.00;99.90
41985;DHT22;28319;48.116;10.818;2023-05-07T17:26:38;19.00;99.90
41985;DHT22;28319;48.116;10.818;2023-05-07T17:31:42;18.90;99.90
41985;DHT22;28319;48.116;10.818;2023-05-07T17:36:46;18.90;99.90
41985;DHT22;28319;48.116;10.818;2023-05-07T17:41:48;18.80;99.90
41985;DHT22;28319;48.116;10.818;2023-05-07T17:46:50;18.70;99.90
41985;DHT22;28319;48.116;10.818;2023-05-07T17:51:53;18.60;99.90
41985;DHT22;28319;48.116;10.818;2023-05-07T17:56:55;18.50;99.90
41985;DHT22;28319;48.116;10.818;2023-05-07T18:01:57;18.50;99.90
41985;DHT22;28319;48.116;10.818;2023-05-07T18:07:01;18.40;99.90
41985;DHT22;28319;48.116;10.818;2023-05-07T18:12:03;18.30;99.90
41985;DHT22;28319;48.116;10.818;2023-05-07T18:17:05;18.30;99.90
41985;DHT22;28319;48.116;10.818;2023-05-07T18:22:09;18.20;99.90
41985;DHT22;28319;48.116;10.818;2023-05-07T18:27:11;18.20;99.90
41985;DHT22;28319;48.116;10.818;2023-05-07T18:32:14;18.20;99.90
41985;DHT22;28319;48.116;10.818;2023-05-07T18:37:18;18.20;99.90
41985;DHT22;28319;48.116;10.818;2023-05-07T18:42:20;18.40;99.90
41985;DHT22;28319;48.116;10.818;2023-05-07T18:47:23;18.40;99.90
41985;DHT22;28319;48.116;10.818;2023-05-07T18:52:26;18.50;99.90
41985;DHT22;28319;48.116;10.818;2023-05-07T18:57:29;18.10;99.90
41985;DHT22;28319;48.116;10.818;2023-05-07T19:02:31;17.70;99.90
41985;DHT22;28319;48.116;10.818;2023-05-07T19:07:34;17.50;99.90
41985;DHT22;28319;48.116;10.818;2023-05-07T19:12:36;17.30;99.90
41985;DHT22;28319;48.116;10.818;2023-05-07T19:17:39;16.90;99.90
41985;DHT22;28319;48.116;10.818;2023-05-07T19:22:42;16.60;99.90
41985;DHT22;28319;48.116;10.818;2023-05-07T19:27:44;16.30;99.90
41985;DHT22;28319;48.116;10.818;2023-05-07T19:32:46;16.20;99.90
41985;DHT22;28319;48.116;10.818;2023-05-07T19:37:50;16.20;99.90
41985;DHT22;28319;48.116;10.818;2023-05-07T19:42:52;16.20;99.90
41985;DHT22;28319;48.116;10.818;2023-05-07T19:47:54;16.20;99.90
41985;DHT22;28319;48.116;10.818;2023-05-07T19:52:58;16.20;99.90
41985;DHT22;28319;48.116;10.818;2023-05-07T19:58:00;16.20;99.90
41985;DHT22;28319;48.116;10.818;2023-05-07T20:03:03;16.20;99.90
41985;DHT22;28319;48.116;10.818;2023-05-07T20:08:06;16.30;99.90
41985;DHT22;28319;48.116;10.818;2023-05-07T20:13:09;16.50;99.90
41985;DHT22;28319;48.116;10.818;2023-05-07T20:18:12;16.60;99.90
41985;DHT22;28319;48.116;10.818;2023-05-07T20:23:17;16.60;99.90
41985;DHT22;28319;48.116;10.818;2023-05-07T20:28:19;16.60;99.90
41985;DHT22;28319;48.116;10.818;2023-05-07T20:33:21;16.60;99.90
41985;DHT22;28319;48.116;10.818;2023-05-07T20:38:24;16.60;99.90
41985;DHT22;28319;48.116;10.818;2023-05-07T20:43:27;16.60;99.90
41985;DHT22;28319;48.116;10.818;2023-05-07T20:48:29;16.40;99.90
41985;DHT22;28319;48.116;10.818;2023-05-07T20:53:33;16.40;99.90
41985;DHT22;28319;48.116;10.818;2023-05-07T20:58:37;16.20;99.90
41985;DHT22;28319;48.116;10.818;2023-05-07T21:03:38;16.00;99.90
41985;DHT22;28319;48.116;10.818;2023-05-07T21:08:42;15.70;99.90
41985;DHT22;28319;48.116;10.818;2023-05-07T21:13:44;15.50;99.90
41985;DHT22;28319;48.116;10.818;2023-05-07T21:18:46;15.40;99.90
41985;DHT22;28319;48.116;10.818;2023-05-07T21:23:50;15.40;99.90
41985;DHT22;28319;48.116;10.818;2023-05-07T21:28:53;15.30;99.90
41985;DHT22;28319;48.116;10.818;2023-05-07T21:33:55;15.30;99.90
41985;DHT22;28319;48.116;10.818;2023-05-07T21:38:59;15.40;99.90
41985;DHT22;28319;48.116;10.818;2023-05-07T21:44:01;15.40;99.90
41985;DHT22;28319;48.116;10.818;2023-05-07T21:49:03;15.40;99.90
41985;DHT22;28319;48.116;10.818;2023-05-07T21:54:06;15.40;99.90
41985;DHT22;28319;48.116;10.818;2023-05-07T21:59:08;15.40;99.90
41985;DHT22;28319;48.116;10.818;2023-05-07T22:04:10;15.40;99.90
41985;DHT22;28319;48.116;10.818;2023-05-07T22:09:14;15.20;99.90
41985;DHT22;28319;48.116;10.818;2023-05-07T22:14:16;15.00;99.90
41985;DHT22;28319;48.116;10.818;2023-05-07T22:19:18;15.20;99.90
41985;DHT22;28319;48.116;10.818;2023-05-07T22:24:22;15.10;99.90
41985;DHT22;28319;48.116;10.818;2023-05-07T22:29:24;15.20;99.90
41985;DHT22;28319;48.116;10.818;2023-05-07T22:34:26;15.20;99.90
41985;DHT22;28319;48.116;10.818;2023-05-07T22:39:30;15.30;99.90
41985;DHT22;28319;48.116;10.818;2023-05-07T22:44:33;15.00;99.90
41985;DHT22;28319;48.116;10.818;2023-05-07T22:49:36;14.70;99.90
41985;DHT22;28319;48.116;10.818;2023-05-07T22:54:39;14.80;99.90
41985;DHT22;28319;48.116;10.818;2023-05-07T22:59:41;14.90;99.90
41985;DHT22;28319;48.116;10.818;2023-05-07T23:04:43;14.90;99.90
41985;DHT22;28319;48.116;10.818;2023-05-07T23:09:47;15.00;99.90
41985;DHT22;28319;48.116;10.818;2023-05-07T23:14:48;15.00;99.90
41985;DHT22;28319;48.116;10.818;2023-05-07T23:19:50;15.10;99.90
41985;DHT22;28319;48.116;10.818;2023-05-07T23:24:54;15.30;99.90
41985;DHT22;28319;48.116;10.818;2023-05-07T23:29:56;15.10;99.90
41985;DHT22;28319;48.116;10.818;2023-05-07T23:34:58;15.10;99.90
41985;DHT22;28319;48.116;10.818;2023-05-07T23:40:02;15.30;99.90
41985;DHT22;28319;48.116;10.818;2023-05-07T23:45:04;15.30;99.90
41985;DHT22;28319;48.116;10.818;2023-05-07T23:50:07;15.20;99.90
41985;DHT22;28319;48.116;10.818;2023-05-07T23:55:11;15.30;99.90
